Myakka City, Florida
Current Conditions -  °F | °C
As of 12:53 AM on Tuesday 21 Oct 2014 (Local Time) from KSRQ Reporting Station
Scattered Clouds Scattered Clouds  
Wind Chill: 73°   Ceiling: Unl
Heat Index: 73°   Visibility: 10mi
Dew Point: 65°   Wind: 5mph
Humidity: 76%   Direction: 40°NE
Pressure: 29.94"   Gusts: NA
Location:  27.35°N, 82.16°W
Report Text: KSRQ 210453Z 04004KT 10SM SCT060 23/18 A2994 RMK AO2 SLP138 T02280183 403060183
Loading
Personal Weather Stations






























Interactive Weather Map
Tropical Storm Tracking
New forecast layout! Learn more

10-Day Weather Forecast

Advertisements
Track Severe Weather on mobile